Time;durP1;ratioP1;P1;durP2;ratioP2;P2;SDS_P1;SDS_P2;PMS_P1;PMS_P2;Temp;Humidity;BMP_temperature;BMP_pressure;BME280_temperature;BME280_humidity;BME280_pressure;Samples;Min_cycle;Max_cycle;Signal;HPM_P1;HPM_P2
2022/08/21 00:00:25;;;;;;;2.00;1.53;;;16.40;99.90;;;;;;5012602;28;20454;-68
2022/08/21 00:02:56;;;;;;;1.80;1.70;;;16.40;99.90;;;;;;5012069;28;20466;-68
2022/08/21 00:05:23;;;;;;;2.00;1.80;;;16.40;99.90;;;;;;5011682;28;20957;-68
2022/08/21 00:07:50;;;;;;;1.97;1.80;;;16.30;99.90;;;;;;5012936;28;20489;-68
2022/08/21 00:10:17;;;;;;;3.10;1.83;;;16.30;99.90;;;;;;5012543;28;20898;-68
2022/08/21 00:12:45;;;;;;;3.10;1.87;;;16.30;99.90;;;;;;5012558;28;20462;-68
2022/08/21 00:15:15;;;;;;;3.20;2.50;;;16.20;99.90;;;;;;5011590;28;20461;-68
2022/08/21 00:17:43;;;;;;;2.20;1.80;;;16.20;99.90;;;;;;5012300;28;21055;-68
2022/08/21 00:20:12;;;;;;;5.50;2.40;;;16.30;99.90;;;;;;5012364;28;20466;-67
2022/08/21 00:22:39;;;;;;;2.70;1.60;;;16.20;99.90;;;;;;5012363;28;20470;-68
2022/08/21 00:25:08;;;;;;;1.97;1.77;;;16.20;99.90;;;;;;5011871;28;20457;-67
2022/08/21 00:27:35;;;;;;;2.40;1.80;;;16.10;99.90;;;;;;5012351;28;20486;-68
2022/08/21 00:30:02;;;;;;;2.63;1.80;;;16.10;99.90;;;;;;5012490;28;20516;-67
2022/08/21 00:32:30;;;;;;;3.00;1.97;;;16.10;99.90;;;;;;5012197;28;20466;-68
2022/08/21 00:34:58;;;;;;;3.60;1.70;;;16.10;99.90;;;;;;5011678;28;20473;-68
2022/08/21 00:37:25;;;;;;;2.13;1.70;;;16.10;99.90;;;;;;5012601;28;20494;-68
2022/08/21 00:39:53;;;;;;;2.00;1.90;;;16.00;99.90;;;;;;5011914;28;20489;-68
2022/08/21 00:42:20;;;;;;;3.67;2.00;;;16.00;99.90;;;;;;5012692;28;20462;-68
2022/08/21 00:44:49;;;;;;;2.73;2.00;;;16.00;99.90;;;;;;5011459;28;20468;-68
2022/08/21 00:47:16;;;;;;;2.60;1.87;;;16.00;99.90;;;;;;5012318;28;21016;-67
2022/08/21 00:49:43;;;;;;;2.40;1.67;;;16.00;99.90;;;;;;5015047;28;20473;-67
2022/08/21 00:52:14;;;;;;;2.50;1.73;;;15.90;99.90;;;;;;5016517;28;20466;-67
2022/08/21 00:54:42;;;;;;;2.33;1.90;;;15.90;99.90;;;;;;5015590;28;20466;-68
2022/08/21 00:57:14;;;;;;;1.80;1.70;;;15.90;99.90;;;;;;5016049;28;20485;-68
2022/08/21 00:59:44;;;;;;;1.77;1.60;;;15.80;99.90;;;;;;5016019;28;20516;-67
2022/08/21 01:02:11;;;;;;;2.80;1.97;;;15.80;99.90;;;;;;5016275;28;20458;-68
2022/08/21 01:04:38;;;;;;;5.93;2.23;;;15.70;99.90;;;;;;5015564;28;20468;-68
2022/08/21 01:07:06;;;;;;;2.60;2.00;;;15.70;99.90;;;;;;5015988;28;20494;-68
2022/08/21 01:09:34;;;;;;;2.20;2.00;;;15.70;99.90;;;;;;5015745;28;20469;-66
2022/08/21 01:12:01;;;;;;;1.83;1.73;;;15.60;99.90;;;;;;5015839;28;21051;-67
2022/08/21 01:14:28;;;;;;;2.83;1.90;;;15.60;99.90;;;;;;5014975;28;20969;-68
2022/08/21 01:16:56;;;;;;;2.17;1.73;;;15.60;99.90;;;;;;5015592;28;20489;-68
2022/08/21 01:19:24;;;;;;;2.73;2.27;;;15.50;99.90;;;;;;5015751;28;20846;-68
2022/08/21 01:21:53;;;;;;;3.57;1.90;;;15.50;99.90;;;;;;5015961;28;20461;-68
2022/08/21 01:24:21;;;;;;;2.10;1.73;;;15.40;99.90;;;;;;5015711;28;20473;-68
2022/08/21 01:26:48;;;;;;;2.43;2.07;;;15.40;99.90;;;;;;5015018;28;21000;-68
2022/08/21 01:29:23;;;;;;;2.90;2.43;;;15.40;99.90;;;;;;5015406;28;20466;-68
2022/08/21 01:31:50;;;;;;;3.20;2.20;;;15.40;99.90;;;;;;5014666;28;20481;-68
2022/08/21 01:34:17;;;;;;;3.10;1.97;;;15.30;99.90;;;;;;5014299;28;20988;-67
2022/08/21 01:36:45;;;;;;;3.13;2.53;;;15.30;99.90;;;;;;5015062;28;20469;-68
2022/08/21 01:39:14;;;;;;;2.57;2.30;;;15.30;99.90;;;;;;5014485;28;20484;-68
2022/08/21 01:41:40;;;;;;;3.30;2.60;;;15.30;99.90;;;;;;5015121;28;20834;-68
2022/08/21 01:44:07;;;;;;;3.10;2.80;;;15.20;99.90;;;;;;5014389;28;20524;-66
2022/08/21 01:46:34;;;;;;;2.40;2.20;;;15.20;99.90;;;;;;5014756;28;20548;-68
2022/08/21 01:49:01;;;;;;;2.37;1.50;;;15.20;99.90;;;;;;5014867;28;20850;-68
2022/08/21 01:51:28;;;;;;;2.20;2.00;;;15.10;99.90;;;;;;5015079;28;20569;-67
2022/08/21 01:53:54;;;;;;;3.33;2.00;;;15.10;99.90;;;;;;5014331;28;20466;-68
2022/08/21 01:56:22;;;;;;;2.97;2.33;;;15.10;99.90;;;;;;5015158;28;20470;-68
2022/08/21 01:58:49;;;;;;;2.53;2.23;;;15.00;99.90;;;;;;5014754;28;20544;-68
2022/08/21 02:01:16;;;;;;;3.93;2.00;;;15.00;99.90;;;;;;5013875;28;20462;-66
2022/08/21 02:03:43;;;;;;;2.07;1.87;;;15.00;99.90;;;;;;5014115;28;20462;-68
2022/08/21 02:06:17;;;;;;;2.30;1.80;;;15.00;99.90;;;;;;5015230;28;20462;-68
2022/08/21 02:08:44;;;;;;;2.63;2.40;;;15.00;99.90;;;;;;5013947;28;20474;-68
2022/08/21 02:11:10;;;;;;;3.30;1.97;;;15.00;99.90;;;;;;5014343;28;20486;-68
2022/08/21 02:13:38;;;;;;;2.40;2.20;;;14.90;99.90;;;;;;5013572;28;20466;-67
2022/08/21 02:16:06;;;;;;;2.20;1.83;;;14.90;99.90;;;;;;5013968;28;20462;-68
2022/08/21 02:18:33;;;;;;;2.60;2.40;;;14.80;99.90;;;;;;5014175;28;20477;-68
2022/08/21 02:20:59;;;;;;;3.73;2.20;;;14.80;99.90;;;;;;5013638;28;20520;-68
2022/08/21 02:23:26;;;;;;;1.63;1.50;;;14.80;99.90;;;;;;5013758;28;20462;-67
2022/08/21 02:25:53;;;;;;;1.77;1.67;;;14.80;99.90;;;;;;5013941;28;20469;-68
2022/08/21 02:28:19;;;;;;;2.00;1.80;;;14.80;99.90;;;;;;5013910;28;20485;-68
2022/08/21 02:30:49;;;;;;;1.80;1.70;;;14.80;99.90;;;;;;5013796;28;20481;-68
2022/08/21 02:33:16;;;;;;;3.03;2.60;;;14.80;99.90;;;;;;5013537;28;20976;-68
2022/08/21 02:35:44;;;;;;;2.23;2.03;;;14.70;99.90;;;;;;5013754;28;20524;-68
2022/08/21 02:38:14;;;;;;;2.90;1.60;;;14.70;99.90;;;;;;5013294;28;20920;-67
2022/08/21 02:40:44;;;;;;;2.00;1.83;;;14.70;99.90;;;;;;5013922;28;20869;-66
2022/08/21 02:43:11;;;;;;;1.87;1.60;;;14.70;99.90;;;;;;5013917;28;20466;-68
2022/08/21 02:45:39;;;;;;;2.67;1.90;;;14.70;99.90;;;;;;5013012;28;20465;-67
2022/08/21 02:48:10;;;;;;;2.33;1.90;;;14.60;99.90;;;;;;5014106;28;20478;-68
2022/08/21 02:50:38;;;;;;;3.33;1.60;;;14.60;99.90;;;;;;5013553;28;20466;-68
2022/08/21 02:53:07;;;;;;;2.40;2.20;;;14.60;99.90;;;;;;5013376;28;20966;-68
2022/08/21 02:55:35;;;;;;;2.13;1.73;;;14.50;99.90;;;;;;5013456;28;20466;-68
2022/08/21 02:58:04;;;;;;;2.53;2.00;;;14.50;99.90;;;;;;5013061;28;20492;-68
2022/08/21 03:00:32;;;;;;;2.13;1.93;;;14.40;99.90;;;;;;5013575;28;20465;-67
2022/08/21 03:02:59;;;;;;;4.00;2.77;;;14.40;99.90;;;;;;5013170;28;20469;-66
2022/08/21 03:05:31;;;;;;;3.63;2.23;;;14.40;99.90;;;;;;5013406;28;20836;-68
2022/08/21 03:07:58;;;;;;;2.00;1.90;;;14.40;99.90;;;;;;5012859;28;20568;-68
2022/08/21 03:10:25;;;;;;;2.17;1.87;;;14.40;99.90;;;;;;5013203;28;20581;-68
2022/08/21 03:12:52;;;;;;;2.23;1.97;;;14.30;99.90;;;;;;5012546;28;20577;-67
2022/08/21 03:15:22;;;;;;;3.07;2.63;;;14.30;99.90;;;;;;5012171;28;20524;-68
2022/08/21 03:17:49;;;;;;;2.60;2.40;;;14.20;99.90;;;;;;5012651;28;20481;-68
2022/08/21 03:20:18;;;;;;;2.30;2.10;;;14.20;99.90;;;;;;5012733;28;20470;-68
2022/08/21 03:22:46;;;;;;;2.43;2.03;;;14.10;99.90;;;;;;5012693;28;20462;-68
2022/08/21 03:25:13;;;;;;;2.30;2.10;;;14.10;99.90;;;;;;5012362;28;20466;-67
2022/08/21 03:27:40;;;;;;;1.90;1.70;;;14.10;99.90;;;;;;5012896;28;20481;-68
2022/08/21 03:30:08;;;;;;;2.27;1.90;;;14.00;99.90;;;;;;5012738;28;20953;-68
2022/08/21 03:32:36;;;;;;;2.30;1.90;;;14.00;99.90;;;;;;5012832;28;20493;-68
2022/08/21 03:35:03;;;;;;;3.10;2.40;;;14.00;99.90;;;;;;5011996;28;20468;-67
2022/08/21 03:37:29;;;;;;;2.43;2.00;;;13.90;99.90;;;;;;5012751;28;20489;-68
2022/08/21 03:39:57;;;;;;;2.60;2.30;;;13.90;99.90;;;;;;5012871;28;20512;-68
2022/08/21 03:42:24;;;;;;;2.90;2.20;;;13.80;99.90;;;;;;5013416;28;20460;-68
2022/08/21 03:44:51;;;;;;;2.67;2.10;;;13.80;99.90;;;;;;5012144;28;20888;-68
2022/08/21 03:47:18;;;;;;;2.80;2.10;;;13.80;99.90;;;;;;5012941;28;20492;-66
2022/08/21 03:49:44;;;;;;;3.00;2.03;;;13.80;99.90;;;;;;5012676;28;20496;-68
2022/08/21 03:52:11;;;;;;;2.13;1.93;;;13.70;99.90;;;;;;5012951;28;20997;-68
2022/08/21 03:54:39;;;;;;;2.77;2.50;;;13.70;99.90;;;;;;5012836;28;20473;-68
2022/08/21 03:57:08;;;;;;;2.00;1.80;;;13.70;99.90;;;;;;5012982;28;20501;-68
2022/08/21 03:59:35;;;;;;;2.77;2.10;;;13.60;99.90;;;;;;5012734;28;20470;-67
2022/08/21 04:02:03;;;;;;;3.07;2.00;;;13.60;99.90;;;;;;5013015;28;20470;-68
2022/08/21 04:04:30;;;;;;;2.17;1.97;;;13.60;99.90;;;;;;5012759;28;20523;-68
2022/08/21 04:06:58;;;;;;;4.70;1.90;;;13.60;99.90;;;;;;5012579;28;20477;-68
2022/08/21 04:09:26;;;;;;;3.40;2.30;;;13.60;99.90;;;;;;5013080;28;20469;-68
2022/08/21 04:11:52;;;;;;;4.07;2.17;;;13.50;99.90;;;;;;5012628;28;20492;-68
2022/08/21 04:14:21;;;;;;;2.67;2.23;;;13.50;99.90;;;;;;5012237;28;20494;-68
2022/08/21 04:16:48;;;;;;;4.07;2.00;;;13.50;99.90;;;;;;5012757;28;20474;-68
2022/08/21 04:19:15;;;;;;;2.70;2.20;;;13.50;99.90;;;;;;5012827;28;20465;-68
2022/08/21 04:21:42;;;;;;;3.57;3.27;;;13.40;99.90;;;;;;5012764;28;20454;-68
2022/08/21 04:24:10;;;;;;;3.30;2.13;;;13.40;99.90;;;;;;5011550;28;20462;-68
2022/08/21 04:26:39;;;;;;;2.60;2.07;;;13.40;99.90;;;;;;5012746;28;20467;-67
2022/08/21 04:29:06;;;;;;;2.40;2.20;;;13.40;99.90;;;;;;5012638;28;20477;-67
2022/08/21 04:31:36;;;;;;;2.67;2.20;;;13.30;99.90;;;;;;5012882;28;20549;-68
2022/08/21 04:34:04;;;;;;;2.53;2.10;;;13.30;99.90;;;;;;5012488;28;20465;-68
2022/08/21 04:36:31;;;;;;;2.50;1.93;;;13.30;99.90;;;;;;5012763;28;20505;-67
2022/08/21 04:38:58;;;;;;;2.17;1.80;;;13.30;99.90;;;;;;5101645;23;20932;-65
2022/08/21 04:41:25;;;;;;;2.23;1.80;;;13.30;99.90;;;;;;5029987;28;20454;-66
2022/08/21 04:43:52;;;;;;;2.77;2.37;;;13.30;99.90;;;;;;5029601;28;20687;-68
2022/08/21 04:46:19;;;;;;;2.70;2.30;;;13.30;99.90;;;;;;5030293;28;20468;-66
2022/08/21 04:48:47;;;;;;;2.43;2.23;;;13.30;99.90;;;;;;5030561;28;20509;-66
2022/08/21 04:51:18;;;;;;;2.47;2.20;;;13.30;99.90;;;;;;5029997;28;20456;-66
2022/08/21 04:53:50;;;;;;;2.63;2.10;;;13.30;99.90;;;;;;5028812;28;20468;-66
2022/08/21 04:56:22;;;;;;;2.23;1.93;;;13.30;99.90;;;;;;5030339;28;20592;-66
2022/08/21 04:58:50;;;;;;;2.23;2.00;;;13.30;99.90;;;;;;5030548;28;20476;-65
2022/08/21 05:01:20;;;;;;;2.67;2.13;;;13.30;99.90;;;;;;5030109;28;20465;-66
2022/08/21 05:03:51;;;;;;;2.90;2.20;;;13.40;99.90;;;;;;5029861;28;20464;-66
2022/08/21 05:06:18;;;;;;;2.73;2.37;;;13.40;99.90;;;;;;5030535;28;20960;-65
2022/08/21 05:08:47;;;;;;;2.47;2.27;;;13.40;99.90;;;;;;5029832;28;20859;-66
2022/08/21 05:11:14;;;;;;;3.00;2.70;;;13.40;99.90;;;;;;5030095;28;20951;-65
2022/08/21 05:13:41;;;;;;;3.50;3.20;;;13.50;99.90;;;;;;5029658;28;20956;-65
2022/08/21 05:16:08;;;;;;;3.70;2.10;;;13.50;99.90;;;;;;5030457;28;20471;-66
2022/08/21 05:18:35;;;;;;;2.43;2.23;;;13.60;99.90;;;;;;5029744;28;20481;-66
2022/08/21 05:21:04;;;;;;;3.00;2.20;;;13.60;99.90;;;;;;5029903;28;20472;-65
2022/08/21 05:23:31;;;;;;;3.30;3.00;;;13.70;99.90;;;;;;5029579;28;20515;-66
2022/08/21 05:25:58;;;;;;;2.60;2.40;;;13.80;99.90;;;;;;5029670;28;20974;-66
2022/08/21 05:28:25;;;;;;;4.57;2.60;;;13.80;99.90;;;;;;5029823;28;20523;-67
2022/08/21 05:30:52;;;;;;;2.77;2.50;;;13.90;99.90;;;;;;5029629;28;20492;-66
2022/08/21 05:33:18;;;;;;;2.40;2.07;;;14.00;99.90;;;;;;5029260;28;20500;-66
2022/08/21 05:35:45;;;;;;;2.47;2.27;;;14.00;99.90;;;;;;5032393;28;20873;-66
2022/08/21 05:38:13;;;;;;;2.43;2.23;;;14.10;99.90;;;;;;5033079;28;20492;-65
2022/08/21 05:40:40;;;;;;;2.43;2.23;;;14.20;99.90;;;;;;5033146;28;20556;-64
2022/08/21 05:43:06;;;;;;;3.43;2.13;;;14.30;99.90;;;;;;5033078;28;20457;-65
2022/08/21 05:45:34;;;;;;;4.07;3.70;;;14.40;99.90;;;;;;5032791;28;20476;-66
2022/08/21 05:48:07;;;;;;;2.27;2.07;;;14.40;99.90;;;;;;5032814;28;20484;-66
2022/08/21 05:50:34;;;;;;;2.30;2.10;;;14.50;99.90;;;;;;5033242;28;20460;-66
2022/08/21 05:53:01;;;;;;;3.93;2.53;;;14.50;99.90;;;;;;5033223;28;20485;-67
2022/08/21 05:55:29;;;;;;;2.73;2.03;;;14.70;99.90;;;;;;5032475;28;20464;-66
2022/08/21 05:57:56;;;;;;;3.53;2.90;;;14.70;99.90;;;;;;5032990;28;20480;-66
2022/08/21 06:00:23;;;;;;;2.40;2.10;;;14.80;99.90;;;;;;5032640;28;20983;-64
2022/08/21 06:02:50;;;;;;;2.77;2.27;;;14.80;99.90;;;;;;5032968;28;20552;-66
2022/08/21 06:05:17;;;;;;;2.90;2.23;;;14.90;99.90;;;;;;5032346;28;20794;-66
2022/08/21 06:07:44;;;;;;;3.10;2.20;;;15.00;99.90;;;;;;5008542;28;20485;-66
2022/08/21 06:10:11;;;;;;;2.60;2.40;;;15.10;99.90;;;;;;5011042;28;20477;-66
2022/08/21 06:12:39;;;;;;;2.70;2.20;;;15.10;99.90;;;;;;5010160;28;20477;-65
2022/08/21 06:15:07;;;;;;;3.20;2.30;;;15.20;99.90;;;;;;5011677;28;20469;-65
2022/08/21 06:17:34;;;;;;;2.47;2.10;;;15.30;99.90;;;;;;5008207;28;20493;-65
2022/08/21 06:20:01;;;;;;;4.97;2.70;;;15.30;99.90;;;;;;5012016;28;20461;-68
2022/08/21 06:22:28;;;;;;;2.57;2.37;;;15.50;99.90;;;;;;5012477;28;20836;-68
2022/08/21 06:24:55;;;;;;;2.57;2.37;;;15.50;99.90;;;;;;5011081;28;20466;-67
2022/08/21 06:27:22;;;;;;;2.77;2.47;;;15.60;99.90;;;;;;5011085;28;20486;-68
2022/08/21 06:29:50;;;;;;;4.37;2.30;;;15.70;99.90;;;;;;5011093;28;21007;-66
2022/08/21 06:32:17;;;;;;;2.27;2.00;;;15.80;99.90;;;;;;5011685;28;20540;-67
2022/08/21 06:34:48;;;;;;;3.57;2.60;;;16.00;99.90;;;;;;5011380;28;20469;-67
2022/08/21 06:37:14;;;;;;;3.20;2.60;;;16.10;99.90;;;;;;5010514;28;20493;-67
2022/08/21 06:39:41;;;;;;;3.07;2.00;;;16.20;99.90;;;;;;5011705;28;20469;-67
2022/08/21 06:42:14;;;;;;;2.40;2.20;;;16.30;99.90;;;;;;5011102;28;20462;-67
2022/08/21 06:44:41;;;;;;;5.53;2.60;;;16.50;99.90;;;;;;5011282;28;20458;-67
2022/08/21 06:47:09;;;;;;;4.20;2.50;;;16.60;99.90;;;;;;5009580;28;20481;-67
2022/08/21 06:49:36;;;;;;;4.60;2.47;;;16.70;99.90;;;;;;5011356;28;20466;-67
2022/08/21 06:52:03;;;;;;;5.73;2.30;;;16.80;99.90;;;;;;5011446;28;20485;-66
2022/08/21 06:54:31;;;;;;;4.97;2.63;;;17.00;99.90;;;;;;5010296;28;20873;-67
2022/08/21 06:56:57;;;;;;;6.77;2.60;;;17.10;99.90;;;;;;5006023;28;20544;-67
2022/08/21 06:59:24;;;;;;;3.37;2.73;;;17.30;99.90;;;;;;5010660;28;20462;-67
2022/08/21 07:01:51;;;;;;;3.30;2.47;;;17.40;99.90;;;;;;5010680;28;20500;-65
2022/08/21 07:04:19;;;;;;;2.70;2.50;;;17.50;99.90;;;;;;5009112;28;20473;-67
2022/08/21 07:06:46;;;;;;;5.33;2.80;;;17.60;99.90;;;;;;5008125;28;20830;-66
2022/08/21 07:09:13;;;;;;;6.80;3.53;;;17.70;99.90;;;;;;5006998;28;20477;-66
2022/08/21 07:11:41;;;;;;;4.10;2.70;;;17.80;99.90;;;;;;5008829;28;20896;-66
2022/08/21 07:14:08;;;;;;;3.97;2.63;;;17.90;99.90;;;;;;5010191;28;21005;-66
2022/08/21 07:16:35;;;;;;;4.10;3.00;;;18.00;99.90;;;;;;5008968;28;20843;-66
2022/08/21 07:19:03;;;;;;;8.57;3.50;;;18.00;99.90;;;;;;5009339;28;20971;-65
2022/08/21 07:21:31;;;;;;;4.37;2.80;;;18.20;99.90;;;;;;5010899;28;20465;-66
2022/08/21 07:23:58;;;;;;;2.87;2.57;;;18.20;99.90;;;;;;5010616;28;20469;-64
2022/08/21 07:26:26;;;;;;;5.20;3.20;;;18.40;99.90;;;;;;5011966;28;20479;-67
2022/08/21 07:28:53;;;;;;;3.23;2.80;;;18.50;99.90;;;;;;5010348;28;21001;-66
2022/08/21 07:31:22;;;;;;;3.30;2.67;;;18.70;99.90;;;;;;5011301;28;21058;-67
2022/08/21 07:33:49;;;;;;;3.07;2.70;;;18.80;99.90;;;;;;5009707;28;20499;-67
2022/08/21 07:36:17;;;;;;;3.80;2.97;;;19.00;99.90;;;;;;5010590;28;20466;-67
2022/08/21 07:38:45;;;;;;;5.07;2.80;;;19.10;99.90;;;;;;5007260;28;20497;-67
2022/08/21 07:41:16;;;;;;;5.57;2.90;;;19.20;99.90;;;;;;5009473;28;20765;-67
2022/08/21 07:43:43;;;;;;;3.67;3.23;;;19.40;99.90;;;;;;5009120;28;20544;-67
2022/08/21 07:46:10;;;;;;;5.63;2.90;;;19.50;99.90;;;;;;5009303;28;20471;-66
2022/08/21 07:48:37;;;;;;;3.10;2.33;;;19.70;99.90;;;;;;5008857;28;20484;-66
2022/08/21 07:51:07;;;;;;;3.83;3.00;;;19.90;99.90;;;;;;5010272;28;20476;-66
2022/08/21 07:53:34;;;;;;;6.20;2.90;;;19.90;99.90;;;;;;5008873;28;20497;-65
2022/08/21 07:56:03;;;;;;;4.60;3.30;;;20.10;99.90;;;;;;5009520;28;20461;-66
2022/08/21 07:58:30;;;;;;;2.90;2.47;;;20.20;99.90;;;;;;5009431;28;20920;-67
2022/08/21 08:00:56;;;;;;;4.27;2.83;;;20.30;99.90;;;;;;5010146;28;20470;-65
2022/08/21 08:03:23;;;;;;;4.40;3.17;;;20.40;99.90;;;;;;5008959;28;20461;-66
2022/08/21 08:05:50;;;;;;;4.07;2.90;;;20.50;99.90;;;;;;5010113;28;20476;-67
2022/08/21 08:08:17;;;;;;;5.47;2.77;;;20.70;99.90;;;;;;5008763;28;20487;-66
2022/08/21 08:10:45;;;;;;;6.10;2.80;;;20.80;99.90;;;;;;5009752;28;20911;-67
2022/08/21 08:13:14;;;;;;;2.77;2.47;;;20.90;99.90;;;;;;5009091;28;20984;-66
2022/08/21 08:15:40;;;;;;;2.63;2.30;;;21.00;99.90;;;;;;5009854;28;20473;-67
2022/08/21 08:18:07;;;;;;;3.97;2.63;;;21.10;99.90;;;;;;5007241;28;20477;-66
2022/08/21 08:20:34;;;;;;;3.13;2.40;;;21.20;99.90;;;;;;5009892;28;20969;-66
2022/08/21 08:23:01;;;;;;;2.87;2.60;;;21.40;99.90;;;;;;5009435;28;20462;-66
2022/08/21 08:25:28;;;;;;;4.53;2.57;;;21.40;99.90;;;;;;5005966;28;20462;-67
2022/08/21 08:27:55;;;;;;;2.40;2.20;;;21.60;99.90;;;;;;5009003;28;20477;-67
2022/08/21 08:30:23;;;;;;;3.20;2.57;;;21.70;99.90;;;;;;5009354;28;20598;-67
2022/08/21 08:32:50;;;;;;;3.20;2.60;;;21.80;99.90;;;;;;5009216;28;20582;-66
2022/08/21 08:35:18;;;;;;;2.70;2.50;;;21.90;99.90;;;;;;5008456;28;20466;-67
2022/08/21 08:37:45;;;;;;;4.47;2.77;;;22.00;99.90;;;;;;5008580;28;20490;-67
2022/08/21 08:40:14;;;;;;;5.73;2.80;;;22.10;99.90;;;;;;5009389;28;20489;-67
2022/08/21 08:42:42;;;;;;;3.97;2.70;;;22.10;99.70;;;;;;5009390;28;20463;-65
2022/08/21 08:45:11;;;;;;;3.30;3.00;;;22.20;99.90;;;;;;5008630;28;20845;-67
2022/08/21 08:47:44;;;;;;;3.60;2.67;;;22.40;99.90;;;;;;5008332;28;20479;-67
2022/08/21 08:50:17;;;;;;;9.47;2.93;;;22.40;99.90;;;;;;5009551;28;21329;-67
2022/08/21 08:52:48;;;;;;;3.00;2.23;;;22.60;99.90;;;;;;5009373;28;20486;-67
2022/08/21 08:55:20;;;;;;;5.50;3.10;;;22.70;99.90;;;;;;5007723;28;20478;-67
2022/08/21 08:57:50;;;;;;;4.33;2.30;;;22.80;99.90;;;;;;5008391;28;20478;-67
2022/08/21 09:00:20;;;;;;;4.13;2.70;;;22.90;99.90;;;;;;5008993;28;20892;-66
2022/08/21 09:02:54;;;;;;;4.53;3.03;;;23.00;98.90;;;;;;5009027;28;20475;-67
2022/08/21 09:05:25;;;;;;;4.13;2.80;;;23.10;99.90;;;;;;5008425;28;20462;-66
2022/08/21 09:08:16;;;;;;;4.40;2.57;;;23.20;99.20;;;;;;5008340;28;20906;-65
2022/08/21 09:10:53;;;;;;;5.50;3.17;;;23.30;99.70;;;;;;5008141;28;20496;-67
2022/08/21 09:13:25;;;;;;;6.73;3.03;;;23.50;99.60;;;;;;5010709;28;20490;-67
2022/08/21 09:16:01;;;;;;;4.10;2.87;;;23.60;99.20;;;;;;5013221;28;21040;-66
2022/08/21 09:18:40;;;;;;;6.83;2.80;;;23.80;98.50;;;;;;5010251;28;20976;-67
2022/08/21 09:21:17;;;;;;;3.90;2.97;;;23.90;99.00;;;;;;5012811;28;21024;-67
2022/08/21 09:23:52;;;;;;;3.10;2.53;;;24.00;98.70;;;;;;5012449;28;20517;-67
2022/08/21 09:26:21;;;;;;;4.37;2.40;;;24.10;98.80;;;;;;5012303;28;20478;-67
2022/08/21 09:28:54;;;;;;;4.27;3.00;;;24.20;98.60;;;;;;5009786;28;20875;-67
2022/08/21 09:31:24;;;;;;;3.30;2.90;;;24.30;97.20;;;;;;5013633;28;20473;-67
2022/08/21 09:33:59;;;;;;;3.70;2.83;;;24.20;96.90;;;;;;5012318;28;20496;-67
2022/08/21 09:36:34;;;;;;;3.90;2.37;;;24.30;97.80;;;;;;5013334;28;21001;-67
2022/08/21 09:39:01;;;;;;;4.37;2.53;;;24.40;95.50;;;;;;5011906;28;20990;-67
2022/08/21 09:41:31;;;;;;;2.60;2.40;;;24.40;97.00;;;;;;5013615;28;20472;-68
2022/08/21 09:43:59;;;;;;;7.47;2.80;;;24.50;96.70;;;;;;5012331;28;20814;-66
2022/08/21 09:46:27;;;;;;;3.93;3.00;;;24.60;96.90;;;;;;5012271;28;20463;-67
2022/08/21 09:48:59;;;;;;;3.77;2.30;;;24.70;95.60;;;;;;5012217;28;20516;-67
2022/08/21 09:51:31;;;;;;;3.30;2.43;;;24.70;96.30;;;;;;5012656;28;20458;-67
2022/08/21 09:54:16;;;;;;;3.03;2.70;;;24.90;96.80;;;;;;5023266;28;20834;-66
2022/08/21 09:59:41;;;;;;;3.73;2.70;;;25.20;95.80;;;;;;5008512;28;20456;-67
2022/08/21 10:02:28;;;;;;;3.00;2.60;;;25.30;95.40;;;;;;5010495;28;21024;-66
2022/08/21 10:04:59;;;;;;;3.07;2.77;;;25.40;97.10;;;;;;5008880;28;20556;-67
2022/08/21 10:07:28;;;;;;;3.60;2.67;;;25.50;96.40;;;;;;5009817;28;20485;-68
2022/08/21 10:10:01;;;;;;;5.07;2.43;;;25.60;95.30;;;;;;5010749;28;20906;-67
2022/08/21 10:12:38;;;;;;;2.80;2.30;;;25.60;95.30;;;;;;5010644;28;20501;-67
2022/08/21 10:15:14;;;;;;;3.10;2.50;;;25.70;95.60;;;;;;5010641;28;20584;-67
2022/08/21 10:17:50;;;;;;;3.80;3.20;;;25.80;95.40;;;;;;5009655;28;21093;-67
2022/08/21 10:20:24;;;;;;;4.40;2.80;;;25.90;96.10;;;;;;5010632;28;20552;-66
2022/08/21 10:23:03;;;;;;;2.67;2.40;;;26.00;93.70;;;;;;5008945;28;21349;-67
2022/08/21 10:25:38;;;;;;;3.00;2.70;;;26.00;94.30;;;;;;5011091;28;20462;-68
2022/08/21 10:28:13;;;;;;;5.97;2.60;;;26.00;95.20;;;;;;5010119;28;20491;-67
2022/08/21 10:30:47;;;;;;;4.30;2.90;;;26.10;96.00;;;;;;5011375;28;20465;-66
2022/08/21 10:33:35;;;;;;;2.87;2.50;;;26.30;94.90;;;;;;5011362;28;20576;-67
2022/08/21 10:36:09;;;;;;;3.10;2.40;;;26.30;93.60;;;;;;4996162;28;20462;-65
2022/08/21 10:38:54;;;;;;;2.70;2.33;;;26.30;94.40;;;;;;5009703;28;20484;-67
2022/08/21 10:41:29;;;;;;;3.27;2.40;;;26.50;95.20;;;;;;5011875;28;20469;-67
2022/08/21 10:44:06;;;;;;;3.27;2.60;;;26.60;95.10;;;;;;5010140;28;20878;-67
2022/08/21 10:46:44;;;;;;;4.00;2.80;;;26.80;94.70;;;;;;5010357;28;20458;-66
2022/08/21 10:49:21;;;;;;;5.27;3.03;;;26.90;94.50;;;;;;5008795;28;20480;-68
2022/08/21 10:51:56;;;;;;;3.37;2.93;;;26.90;94.80;;;;;;5011634;28;20487;-67
2022/08/21 10:54:30;;;;;;;4.93;3.43;;;27.00;95.10;;;;;;5010555;28;20493;-67
2022/08/21 10:57:02;;;;;;;5.43;2.90;;;27.10;94.90;;;;;;5010074;28;20481;-67
2022/08/21 10:59:35;;;;;;;3.03;2.73;;;27.10;95.10;;;;;;5011015;28;20470;-67
2022/08/21 11:02:09;;;;;;;3.87;2.73;;;27.30;94.90;;;;;;5010644;28;20886;-66
2022/08/21 11:04:42;;;;;;;4.63;3.30;;;27.40;94.70;;;;;;5008644;28;20469;-66
2022/08/21 11:07:19;;;;;;;3.50;3.10;;;27.40;94.30;;;;;;5009472;28;20481;-66
2022/08/21 11:09:48;;;;;;;4.07;2.80;;;27.40;94.80;;;;;;5010316;28;21003;-66
2022/08/21 11:12:24;;;;;;;4.20;3.20;;;27.50;94.70;;;;;;5010630;28;20473;-68
2022/08/21 11:14:57;;;;;;;4.03;2.57;;;27.50;94.20;;;;;;5010678;28;20865;-67
2022/08/21 11:17:31;;;;;;;3.10;2.37;;;27.50;94.20;;;;;;5010136;28;20478;-67
2022/08/21 11:20:07;;;;;;;3.93;2.77;;;27.70;94.80;;;;;;5010764;28;20465;-66
2022/08/21 11:22:46;;;;;;;3.50;3.10;;;27.80;93.50;;;;;;5010436;28;20472;-67
2022/08/21 11:25:20;;;;;;;2.77;2.53;;;27.80;93.80;;;;;;5010811;28;20461;-67
2022/08/21 11:27:53;;;;;;;3.03;2.77;;;27.80;93.70;;;;;;5009650;28;20487;-67
2022/08/21 11:30:21;;;;;;;3.20;2.47;;;27.70;92.90;;;;;;5008267;28;20892;-68
2022/08/21 11:33:04;;;;;;;2.77;2.40;;;27.80;93.90;;;;;;5010112;28;20472;-68
2022/08/21 11:35:38;;;;;;;3.83;2.80;;;28.00;93.60;;;;;;5009633;28;20580;-67
2022/08/21 11:38:21;;;;;;;3.63;2.40;;;28.30;93.20;;;;;;5008410;28;20489;-67
2022/08/21 11:40:57;;;;;;;4.83;3.00;;;28.10;91.10;;;;;;5010379;28;20492;-68
2022/08/21 11:43:37;;;;;;;3.60;2.77;;;27.70;90.80;;;;;;5009518;28;20952;-67
2022/08/21 11:46:15;;;;;;;3.40;2.63;;;27.20;91.00;;;;;;5010328;28;20466;-66
2022/08/21 11:48:49;;;;;;;4.33;3.23;;;26.80;91.90;;;;;;5008676;28;20482;-68
2022/08/21 11:51:21;;;;;;;3.17;2.87;;;26.70;91.30;;;;;;5010258;28;20710;-68
2022/08/21 11:53:54;;;;;;;2.90;2.60;;;26.70;93.00;;;;;;5008837;28;20485;-69
2022/08/21 11:56:26;;;;;;;4.23;2.83;;;27.00;91.50;;;;;;5009694;28;20465;-68
2022/08/21 11:58:59;;;;;;;3.20;2.57;;;27.20;92.70;;;;;;5008399;28;20481;-68
2022/08/21 12:01:29;;;;;;;3.07;2.47;;;27.40;92.80;;;;;;5009526;28;20807;-68
2022/08/21 12:04:01;;;;;;;4.00;2.50;;;27.60;92.20;;;;;;5008816;28;20866;-68
2022/08/21 12:06:33;;;;;;;3.53;2.73;;;27.90;91.20;;;;;;5010718;28;20473;-67
2022/08/21 12:09:04;;;;;;;4.97;3.27;;;27.90;91.40;;;;;;5010125;28;20477;-68
2022/08/21 12:11:31;;;;;;;2.83;2.53;;;28.00;91.80;;;;;;5010816;28;20489;-69
2022/08/21 12:14:12;;;;;;;3.33;2.77;;;28.10;90.50;;;;;;5009440;28;21005;-68
2022/08/21 12:16:40;;;;;;;3.83;3.20;;;28.00;89.50;;;;;;5010309;28;20461;-68
2022/08/21 12:19:09;;;;;;;3.43;2.73;;;27.90;90.60;;;;;;5010297;28;20473;-68
2022/08/21 12:21:50;;;;;;;3.10;2.40;;;27.90;91.70;;;;;;5010214;28;20472;-66
2022/08/21 12:24:32;;;;;;;3.90;2.87;;;28.00;91.80;;;;;;5009969;28;20462;-68
2022/08/21 12:27:13;;;;;;;2.67;2.47;;;28.30;92.10;;;;;;5008522;28;20486;-68
2022/08/21 12:29:48;;;;;;;4.10;2.70;;;28.50;91.10;;;;;;5009519;28;20519;-67
2022/08/21 12:32:24;;;;;;;3.17;2.40;;;28.70;90.40;;;;;;5008338;28;21025;-68
2022/08/21 12:34:55;;;;;;;3.40;2.53;;;28.80;91.40;;;;;;5008109;28;20493;-68
2022/08/21 12:37:29;;;;;;;3.10;2.70;;;28.90;89.80;;;;;;5009085;28;20508;-69
2022/08/21 12:40:02;;;;;;;2.73;2.47;;;28.90;90.70;;;;;;5008792;28;21040;-67
2022/08/21 12:42:41;;;;;;;3.30;3.00;;;29.00;91.20;;;;;;5007850;28;20462;-68
2022/08/21 12:45:19;;;;;;;3.00;2.60;;;29.00;90.30;;;;;;5009407;28;20465;-67
2022/08/21 12:47:51;;;;;;;3.00;2.70;;;29.00;90.50;;;;;;5013330;28;20862;-69
2022/08/21 12:50:22;;;;;;;6.13;2.80;;;28.80;91.10;;;;;;5011835;28;20470;-68
2022/08/21 12:52:56;;;;;;;2.70;2.50;;;28.50;90.80;;;;;;5013058;28;20548;-68
2022/08/21 12:55:29;;;;;;;6.20;2.60;;;28.20;91.00;;;;;;5012214;28;21067;-66
2022/08/21 12:57:57;;;;;;;2.40;2.20;;;28.00;90.30;;;;;;5012686;28;20544;-66
2022/08/21 13:00:27;;;;;;;3.77;2.70;;;27.90;91.20;;;;;;5012017;28;20481;-66
2022/08/21 13:02:55;;;;;;;3.17;2.63;;;27.80;90.20;;;;;;5012529;28;20901;-66